createdAt,value
2019-01-20T00:02:04.579Z,7.08
2019-01-20T00:04:35.948Z,6.30
2019-01-20T00:07:07.086Z,6.60
2019-01-20T00:09:37.491Z,5.77
2019-01-20T00:12:07.932Z,5.90
2019-01-20T00:14:38.607Z,5.95
2019-01-20T00:17:10.732Z,7.17
2019-01-20T00:19:41.702Z,8.20
2019-01-20T00:22:12.123Z,12.00
2019-01-20T00:24:42.481Z,11.40
2019-01-20T00:27:13.106Z,13.57
2019-01-20T00:29:43.857Z,13.40
2019-01-20T00:32:14.317Z,13.67
2019-01-20T00:34:44.896Z,12.18
2019-01-20T00:37:15.257Z,14.20
2019-01-20T00:39:46.863Z,13.03
2019-01-20T00:42:17.235Z,12.30
2019-01-20T00:44:47.876Z,13.37
2019-01-20T00:47:18.184Z,11.00
2019-01-20T00:49:48.882Z,11.33
2019-01-20T00:52:19.226Z,12.10
2019-01-20T00:54:51.246Z,12.00
2019-01-20T00:57:22.614Z,16.73
2019-01-20T00:59:53.232Z,17.00
2019-01-20T01:02:23.653Z,19.53
2019-01-20T01:04:55.852Z,15.57
2019-01-20T01:07:26.220Z,17.50
2019-01-20T01:09:58.108Z,20.10
2019-01-20T01:12:28.506Z,16.30
2019-01-20T01:15:01.083Z,22.45
2019-01-20T01:17:31.631Z,20.93
2019-01-20T01:20:03.280Z,15.90
2019-01-20T01:22:33.647Z,18.12
2019-01-20T01:25:03.969Z,16.77
2019-01-20T01:27:34.600Z,24.27
2019-01-20T01:30:07.855Z,19.03
2019-01-20T01:32:38.481Z,14.28
2019-01-20T01:35:09.337Z,16.40
2019-01-20T01:37:40.135Z,15.65
2019-01-20T01:40:11.740Z,16.40
2019-01-20T01:42:42.396Z,15.53
2019-01-20T01:45:18.164Z,17.33
2019-01-20T01:47:48.664Z,15.10
2019-01-20T01:50:19.970Z,17.47
2019-01-20T01:52:50.320Z,18.50
2019-01-20T01:55:21.098Z,18.63
2019-01-20T01:57:51.682Z,16.13
2019-01-20T02:00:24.714Z,16.70
2019-01-20T02:02:55.133Z,19.02
2019-01-20T02:05:25.479Z,24.50
2019-01-20T02:07:56.352Z,30.43
2019-01-20T02:10:27.126Z,22.63
2019-01-20T02:12:58.308Z,19.90
2019-01-20T02:15:28.887Z,16.93
2019-01-20T02:18:02.348Z,17.67
2019-01-20T02:20:33.735Z,16.23
2019-01-20T02:23:06.229Z,18.20
2019-01-20T02:25:40.281Z,16.97
2019-01-20T02:28:12.802Z,18.20
2019-01-20T02:30:43.074Z,16.37
2019-01-20T02:33:14.000Z,17.90
2019-01-20T02:35:44.403Z,19.47
2019-01-20T02:38:16.466Z,17.10
2019-01-20T02:40:47.147Z,23.13
2019-01-20T02:43:22.342Z,18.73
2019-01-20T02:45:52.664Z,19.50
2019-01-20T02:48:23.256Z,20.93
2019-01-20T02:50:53.898Z,23.50
2019-01-20T02:53:24.267Z,19.10
2019-01-20T02:55:54.992Z,20.32
2019-01-20T02:58:25.687Z,22.13
2019-01-20T03:00:56.150Z,18.73
2019-01-20T03:03:27.583Z,19.67
2019-01-20T03:05:58.106Z,20.17
2019-01-20T03:08:28.432Z,19.77
2019-01-20T03:10:58.903Z,23.17
2019-01-20T03:13:29.437Z,21.63
2019-01-20T03:16:02.307Z,17.10
2019-01-20T03:18:34.433Z,20.37
2019-01-20T03:21:05.212Z,19.03
2019-01-20T03:23:35.585Z,15.70
2019-01-20T03:26:06.906Z,18.10
2019-01-20T03:28:37.254Z,19.80
2019-01-20T03:31:09.251Z,19.88
2019-01-20T03:33:39.927Z,17.30
2019-01-20T03:36:12.792Z,21.58
2019-01-20T03:38:43.333Z,20.73
2019-01-20T03:41:15.866Z,23.00
2019-01-20T03:43:46.215Z,17.00
2019-01-20T03:46:18.187Z,21.77
2019-01-20T03:48:49.650Z,16.03
2019-01-20T03:51:20.303Z,18.57
2019-01-20T03:53:50.792Z,17.83
2019-01-20T03:56:22.371Z,20.20
2019-01-20T03:58:52.800Z,18.47
2019-01-20T04:01:24.485Z,20.60
2019-01-20T04:03:55.169Z,19.33
2019-01-20T04:06:25.476Z,19.60
2019-01-20T04:08:58.791Z,22.93
2019-01-20T04:11:30.480Z,14.77
2019-01-20T04:14:03.292Z,14.05
2019-01-20T04:16:33.703Z,15.93
2019-01-20T04:19:04.583Z,13.15
2019-01-20T04:21:34.919Z,13.70
2019-01-20T04:24:05.302Z,16.17
2019-01-20T04:26:35.952Z,17.00
2019-01-20T04:29:06.285Z,16.30
2019-01-20T04:31:36.624Z,23.17
2019-01-20T04:34:08.013Z,20.56
2019-01-20T04:36:38.304Z,19.20
2019-01-20T04:39:10.099Z,16.40
2019-01-20T04:41:40.419Z,19.63
2019-01-20T04:44:11.107Z,18.05
2019-01-20T04:46:41.588Z,16.17
2019-01-20T04:49:12.304Z,17.10
2019-01-20T04:51:42.598Z,13.77
2019-01-20T04:54:14.980Z,15.83
2019-01-20T04:56:47.235Z,15.70
2019-01-20T04:59:18.886Z,15.13
2019-01-20T05:01:49.220Z,14.87
2019-01-20T05:04:20.880Z,16.83
2019-01-20T05:06:51.383Z,14.25
2019-01-20T05:09:26.259Z,17.40
2019-01-20T05:11:56.816Z,20.43
2019-01-20T05:14:27.170Z,17.03
2019-01-20T05:17:00.158Z,19.85
2019-01-20T05:19:30.508Z,21.87
2019-01-20T05:22:01.203Z,21.17
2019-01-20T05:24:31.598Z,21.20
2019-01-20T05:27:03.140Z,24.40
2019-01-20T05:29:34.903Z,23.70
2019-01-20T05:32:05.190Z,17.60
2019-01-20T05:34:37.139Z,19.33
2019-01-20T05:37:08.161Z,20.68
2019-01-20T05:39:38.619Z,20.07
2019-01-20T05:42:09.426Z,14.20
2019-01-20T05:44:39.770Z,17.83
2019-01-20T05:47:10.398Z,18.90
2019-01-20T05:49:40.840Z,19.30
2019-01-20T05:52:13.694Z,18.23
2019-01-20T05:54:46.535Z,18.00
2019-01-20T05:57:18.301Z,21.37
2019-01-20T05:59:48.638Z,16.33
2019-01-20T06:02:19.434Z,14.27
2019-01-20T06:04:49.874Z,16.53
2019-01-20T06:07:22.854Z,18.32
2019-01-20T06:09:53.366Z,12.70
2019-01-20T06:12:24.368Z,14.93
2019-01-20T06:14:54.816Z,15.67
2019-01-20T06:17:25.158Z,15.70
2019-01-20T06:19:55.726Z,13.18
2019-01-20T06:22:26.361Z,14.05
2019-01-20T06:24:58.078Z,14.27
2019-01-20T06:27:28.404Z,16.70
2019-01-20T06:29:58.738Z,14.10
2019-01-20T06:32:29.083Z,15.53
2019-01-20T06:34:59.729Z,17.27
2019-01-20T06:37:30.025Z,17.47
2019-01-20T06:40:00.495Z,16.03
2019-01-20T06:42:32.243Z,19.00
2019-01-20T06:45:03.921Z,18.77
2019-01-20T06:47:34.320Z,17.00
2019-01-20T06:50:07.227Z,18.05
2019-01-20T06:52:39.040Z,17.97
2019-01-20T06:55:11.499Z,14.43
2019-01-20T06:57:42.152Z,12.80
2019-01-20T07:00:19.943Z,14.40
2019-01-20T07:02:50.331Z,13.43
2019-01-20T07:05:21.165Z,12.15
2019-01-20T07:07:53.404Z,11.93
2019-01-20T07:10:23.837Z,13.10
2019-01-20T07:12:54.314Z,15.07
2019-01-20T07:15:27.260Z,15.26
2019-01-20T07:17:57.679Z,13.47
2019-01-20T07:20:28.987Z,13.53
2019-01-20T07:23:02.287Z,16.63
2019-01-20T07:25:33.919Z,11.38
2019-01-20T07:28:04.720Z,15.43
2019-01-20T07:30:38.080Z,12.45
2019-01-20T07:33:08.830Z,13.40
2019-01-20T07:35:40.743Z,13.83
2019-01-20T07:38:11.365Z,14.35
2019-01-20T07:40:43.053Z,15.30
2019-01-20T07:43:16.930Z,12.73
2019-01-20T07:45:47.519Z,16.13
2019-01-20T07:48:17.791Z,15.37
2019-01-20T07:50:48.550Z,15.33
2019-01-20T07:53:19.737Z,15.93
2019-01-20T07:55:51.047Z,16.83
2019-01-20T07:58:21.493Z,17.30
2019-01-20T08:00:53.489Z,16.53
2019-01-20T08:03:25.673Z,15.43
2019-01-20T08:05:56.270Z,15.67
2019-01-20T08:08:26.674Z,13.93
2019-01-20T08:10:58.933Z,14.67
2019-01-20T08:13:29.597Z,15.95
2019-01-20T08:16:00.082Z,15.60
2019-01-20T08:18:30.980Z,14.50
2019-01-20T08:21:01.393Z,17.60
2019-01-20T08:23:32.737Z,17.88
2019-01-20T08:26:04.767Z,15.23
2019-01-20T08:28:36.034Z,17.15
2019-01-20T08:31:07.182Z,16.53
2019-01-20T08:33:39.453Z,16.13
2019-01-20T08:36:10.897Z,17.02
2019-01-20T08:38:42.763Z,14.70
2019-01-20T08:41:14.095Z,16.87
2019-01-20T08:43:47.812Z,18.00
2019-01-20T08:46:49.797Z,16.93
2019-01-20T08:49:23.251Z,17.07
2019-01-20T08:51:57.628Z,19.03
2019-01-20T08:54:28.563Z,20.07
2019-01-20T08:57:04.965Z,18.73
2019-01-20T08:59:37.528Z,19.73
2019-01-20T09:02:10.180Z,17.85
2019-01-20T09:04:42.431Z,14.97
2019-01-20T09:07:16.256Z,13.43
2019-01-20T09:09:47.394Z,11.97
2019-01-20T09:12:19.894Z,13.77
2019-01-20T09:14:55.067Z,17.50
2019-01-20T09:17:25.436Z,15.00
2019-01-20T09:19:55.791Z,17.60
2019-01-20T09:22:28.544Z,15.80
2019-01-20T09:24:59.034Z,17.43
2019-01-20T09:27:29.422Z,13.27
2019-01-20T09:29:59.875Z,15.93
2019-01-20T09:32:30.527Z,15.88
2019-01-20T09:35:02.192Z,15.20
2019-01-20T09:37:32.695Z,21.50
2019-01-20T09:40:04.359Z,15.17
2019-01-20T09:42:34.767Z,16.60
2019-01-20T09:45:06.163Z,15.27
2019-01-20T09:47:36.583Z,18.00
2019-01-20T09:50:07.740Z,15.93
2019-01-20T09:52:39.447Z,14.23
2019-01-20T09:55:10.756Z,16.30
2019-01-20T09:57:41.359Z,15.27
2019-01-20T10:00:17.322Z,16.67
2019-01-20T10:02:47.660Z,12.97
2019-01-20T10:05:18.308Z,16.63
2019-01-20T10:07:49.098Z,14.53
2019-01-20T10:10:19.478Z,14.33
2019-01-20T10:12:50.962Z,13.47
2019-01-20T10:15:21.352Z,15.07
2019-01-20T10:17:51.749Z,13.90
2019-01-20T10:20:25.063Z,19.13
2019-01-20T10:22:55.663Z,17.77
2019-01-20T10:25:26.387Z,19.85
2019-01-20T10:27:57.851Z,16.63
2019-01-20T10:30:30.853Z,16.82
2019-01-20T10:33:01.288Z,17.57
2019-01-20T10:35:38.690Z,20.25
2019-01-20T10:38:10.560Z,16.47
2019-01-20T10:40:42.327Z,16.57
2019-01-20T10:43:12.680Z,19.10
2019-01-20T10:45:43.379Z,15.70
2019-01-20T10:48:13.805Z,16.23
2019-01-20T10:50:45.972Z,15.85
2019-01-20T10:53:18.734Z,17.43
2019-01-20T10:55:49.792Z,18.02
2019-01-20T10:58:20.474Z,19.63
2019-01-20T11:00:51.023Z,19.40
2019-01-20T11:03:23.601Z,18.97
2019-01-20T11:05:54.757Z,15.83
2019-01-20T11:08:25.223Z,16.70
2019-01-20T11:10:56.175Z,26.17
2019-01-20T11:13:26.722Z,17.40
2019-01-20T11:15:57.277Z,23.97
2019-01-20T11:18:27.581Z,20.13
2019-01-20T11:20:58.072Z,18.80
2019-01-20T11:23:31.160Z,16.23
2019-01-20T11:26:03.132Z,15.83
2019-01-20T11:28:33.850Z,17.10
2019-01-20T11:31:04.247Z,17.00
2019-01-20T11:33:34.614Z,21.65
2019-01-20T11:36:05.023Z,21.83
2019-01-20T11:38:36.096Z,17.80
2019-01-20T11:41:06.421Z,23.00
2019-01-20T11:43:36.914Z,16.17
2019-01-20T11:46:07.234Z,16.73
2019-01-20T11:48:37.597Z,19.47
2019-01-20T11:51:08.056Z,21.37
2019-01-20T11:53:38.786Z,16.17
2019-01-20T11:56:10.534Z,14.60
2019-01-20T11:58:42.094Z,19.60
2019-01-20T12:01:12.879Z,20.90
2019-01-20T12:03:44.916Z,15.27
2019-01-20T12:06:15.211Z,17.33
2019-01-20T12:08:45.893Z,13.53
2019-01-20T12:11:16.493Z,19.20
2019-01-20T12:13:49.065Z,16.83
2019-01-20T12:16:19.469Z,18.27
2019-01-20T12:18:50.516Z,18.70
2019-01-20T12:21:22.802Z,14.73
2019-01-20T12:23:57.002Z,16.87
2019-01-20T12:26:28.805Z,18.40
2019-01-20T12:29:02.056Z,15.53
2019-01-20T12:31:36.469Z,15.53
2019-01-20T12:34:06.957Z,17.17
2019-01-20T12:36:37.332Z,15.70
2019-01-20T12:39:09.248Z,14.50
2019-01-20T12:41:39.600Z,12.37
2019-01-20T12:44:12.103Z,18.30
2019-01-20T12:46:49.811Z,19.37
2019-01-20T12:49:20.362Z,15.67
2019-01-20T12:51:50.794Z,12.70
2019-01-20T12:54:22.808Z,15.00
2019-01-20T12:56:56.948Z,10.63
2019-01-20T12:59:29.288Z,13.03
2019-01-20T13:02:01.888Z,14.60
2019-01-20T13:04:32.608Z,11.40
2019-01-20T13:07:03.406Z,13.72
2019-01-20T13:09:34.102Z,12.17
2019-01-20T13:12:04.696Z,14.73
2019-01-20T13:14:39.241Z,12.43
2019-01-20T13:17:07.851Z,13.77
2019-01-20T13:19:38.455Z,13.87
2019-01-20T13:22:09.016Z,14.75
2019-01-20T13:24:42.966Z,15.57
2019-01-20T13:27:20.516Z,14.67
2019-01-20T13:29:53.811Z,13.93
2019-01-20T13:32:29.346Z,15.20
2019-01-20T13:35:03.351Z,15.35
2019-01-20T13:37:34.040Z,15.60
2019-01-20T13:40:06.293Z,13.87
2019-01-20T13:42:36.688Z,19.57
2019-01-20T13:45:08.379Z,12.97
2019-01-20T13:47:40.004Z,10.80
2019-01-20T13:50:14.569Z,17.23
2019-01-20T13:52:45.511Z,14.07
2019-01-20T13:55:16.744Z,12.43
2019-01-20T13:57:47.418Z,13.70
2019-01-20T14:00:21.753Z,12.17
2019-01-20T14:02:52.495Z,11.78
2019-01-20T14:05:26.009Z,13.93
2019-01-20T14:08:02.285Z,15.75
2019-01-20T14:10:33.485Z,14.33
2019-01-20T14:13:03.927Z,15.23
2019-01-20T14:15:36.676Z,21.95
2019-01-20T14:18:07.095Z,14.47
2019-01-20T14:20:37.919Z,14.20
2019-01-20T14:23:08.555Z,19.17
2019-01-20T14:25:40.440Z,14.23
2019-01-20T14:28:11.047Z,14.70
2019-01-20T14:30:42.375Z,15.13
2019-01-20T14:33:13.102Z,16.20
2019-01-20T14:35:43.573Z,15.10
2019-01-20T14:38:16.407Z,13.63
2019-01-20T14:40:46.799Z,13.10
2019-01-20T14:43:18.480Z,16.13
2019-01-20T14:45:48.809Z,17.57
2019-01-20T14:48:19.595Z,20.72
2019-01-20T14:50:50.010Z,15.87
2019-01-20T14:53:20.642Z,17.35
2019-01-20T14:55:51.031Z,17.13
2019-01-20T14:58:22.133Z,18.73
2019-01-20T15:00:58.589Z,16.80
2019-01-20T15:03:35.135Z,16.20
2019-01-20T15:06:07.473Z,12.77
2019-01-20T15:08:37.959Z,18.07
2019-01-20T15:11:08.708Z,12.13
2019-01-20T15:13:41.403Z,17.73
2019-01-20T15:16:11.747Z,16.77
2019-01-20T15:18:52.437Z,15.10
2019-01-20T15:21:23.236Z,12.43
2019-01-20T15:23:58.334Z,18.98
2019-01-20T15:26:29.132Z,12.57
2019-01-20T15:29:00.309Z,12.58
2019-01-20T15:31:32.320Z,17.13
2019-01-20T15:34:03.154Z,14.10
2019-01-20T15:36:35.674Z,15.27
2019-01-20T15:39:09.091Z,20.13
2019-01-20T15:41:44.962Z,16.23
2019-01-20T15:44:21.478Z,16.10
2019-01-20T15:46:56.017Z,12.63
2019-01-20T15:49:30.988Z,13.65
2019-01-20T15:52:03.004Z,16.25
2019-01-20T15:54:33.414Z,13.30
2019-01-20T15:57:04.084Z,14.57
2019-01-20T15:59:36.037Z,13.70
2019-01-20T16:02:08.750Z,15.35
2019-01-20T16:04:39.211Z,13.93
2019-01-20T16:07:11.026Z,14.78
2019-01-20T16:09:43.017Z,17.40
2019-01-20T16:12:16.800Z,14.62
2019-01-20T16:14:48.794Z,15.33
2019-01-20T16:17:20.708Z,16.37
2019-01-20T16:19:57.423Z,17.93
2019-01-20T16:22:29.528Z,19.42
2019-01-20T16:25:00.391Z,18.13
2019-01-20T16:27:32.378Z,15.23
2019-01-20T16:30:02.781Z,14.20
2019-01-20T16:32:35.038Z,17.90
2019-01-20T16:35:05.932Z,18.07
2019-01-20T16:37:37.682Z,18.03
2019-01-20T16:40:10.224Z,22.97
2019-01-20T16:42:41.059Z,17.83
2019-01-20T16:45:14.936Z,23.37
2019-01-20T16:47:47.683Z,18.60
2019-01-20T16:50:20.491Z,17.07
2019-01-20T16:52:54.719Z,20.57
2019-01-20T16:55:23.288Z,19.40
2019-01-20T16:57:54.166Z,24.10
2019-01-20T17:00:29.884Z,21.73
2019-01-20T17:03:01.354Z,22.20
2019-01-20T17:05:31.858Z,20.03
2019-01-20T17:08:05.488Z,24.00
2019-01-20T17:10:38.666Z,19.97
2019-01-20T17:13:10.459Z,20.20
2019-01-20T17:15:47.973Z,20.23
2019-01-20T17:18:19.437Z,18.23
2019-01-20T17:20:49.961Z,18.47
2019-01-20T17:23:23.171Z,22.40
2019-01-20T17:25:53.553Z,18.67
2019-01-20T17:28:26.387Z,17.33
2019-01-20T17:30:56.833Z,20.33
2019-01-20T17:33:27.886Z,19.95
2019-01-20T17:36:01.230Z,19.73
2019-01-20T17:38:33.789Z,18.65
2019-01-20T17:41:04.139Z,22.73
2019-01-20T17:43:36.986Z,22.45
2019-01-20T17:46:07.533Z,18.13
2019-01-20T17:48:42.857Z,19.57
2019-01-20T17:51:13.281Z,21.97
2019-01-20T17:53:45.859Z,17.70
2019-01-20T17:56:16.553Z,15.87
2019-01-20T17:58:47.219Z,16.60
2019-01-20T18:01:17.956Z,17.17
2019-01-20T18:03:48.925Z,18.20
2019-01-20T18:06:19.388Z,19.30
2019-01-20T18:08:50.839Z,19.83
2019-01-20T18:11:21.265Z,16.00
2019-01-20T18:13:51.551Z,16.53
2019-01-20T18:16:23.484Z,15.78
2019-01-20T18:18:54.182Z,15.10
2019-01-20T18:21:24.913Z,18.37
2019-01-20T18:24:06.595Z,21.93
2019-01-20T18:26:36.957Z,16.03
2019-01-20T18:29:08.374Z,17.90
2019-01-20T18:31:38.826Z,17.50
2019-01-20T18:34:09.266Z,13.37
2019-01-20T18:36:39.866Z,17.80
2019-01-20T18:39:10.462Z,18.50
2019-01-20T18:41:41.089Z,16.12
2019-01-20T18:44:11.567Z,19.37
2019-01-20T18:46:42.188Z,17.70
2019-01-20T18:49:12.671Z,18.83
2019-01-20T18:51:43.342Z,21.63
2019-01-20T18:54:13.809Z,17.40
2019-01-20T18:56:44.575Z,17.97
2019-01-20T18:59:15.053Z,17.53
2019-01-20T19:01:45.916Z,16.53
2019-01-20T19:04:16.327Z,19.37
2019-01-20T19:06:48.223Z,17.60
2019-01-20T19:09:19.573Z,23.77
2019-01-20T19:11:50.826Z,22.67
2019-01-20T19:14:21.225Z,22.80
2019-01-20T19:16:51.571Z,17.50
2019-01-20T19:19:22.257Z,14.23
2019-01-20T19:21:54.646Z,24.60
2019-01-20T19:24:25.120Z,14.50
2019-01-20T19:26:56.546Z,21.00
2019-01-20T19:29:27.157Z,22.15
2019-01-20T19:31:57.662Z,21.50
2019-01-20T19:34:29.004Z,19.77
2019-01-20T19:36:59.308Z,18.23
2019-01-20T19:39:29.715Z,18.90
2019-01-20T19:42:00.401Z,22.93
2019-01-20T19:44:31.321Z,25.60
2019-01-20T19:47:01.915Z,26.20
2019-01-20T19:49:33.006Z,23.20
2019-01-20T19:52:03.424Z,21.63
2019-01-20T19:54:35.473Z,24.02
2019-01-20T19:57:05.943Z,24.77
2019-01-20T19:59:36.993Z,25.55
2019-01-20T20:02:09.203Z,27.37
2019-01-20T20:04:41.983Z,23.22
2019-01-20T20:07:15.286Z,20.63
2019-01-20T20:09:48.463Z,27.50
2019-01-20T20:12:18.955Z,26.17
2019-01-20T20:14:50.539Z,24.55
2019-01-20T20:17:23.214Z,25.33
2019-01-20T20:19:54.724Z,27.50
2019-01-20T20:25:04.005Z,31.00
2019-01-20T20:27:34.518Z,25.07
2019-01-20T20:30:08.708Z,29.00
2019-01-20T20:32:39.141Z,25.63
2019-01-20T20:35:11.720Z,28.45
2019-01-20T20:37:42.589Z,27.90
2019-01-20T20:40:15.662Z,25.77
2019-01-20T20:42:46.019Z,27.57
2019-01-20T20:45:22.726Z,26.04
2019-01-20T20:47:53.363Z,25.00
2019-01-20T20:50:23.730Z,19.20
2019-01-20T20:52:54.446Z,17.30
2019-01-20T20:55:25.034Z,23.73
2019-01-20T20:57:57.663Z,21.57
2019-01-20T21:00:51.316Z,28.90
2019-01-20T21:03:27.765Z,33.07
2019-01-20T21:05:58.476Z,26.85
2019-01-20T21:08:30.042Z,20.93
2019-01-20T21:11:00.600Z,23.57
2019-01-20T21:13:31.015Z,23.43
2019-01-20T21:16:01.499Z,20.82
2019-01-20T21:18:32.256Z,26.30
2019-01-20T21:21:02.652Z,23.17
2019-01-20T21:23:33.227Z,25.87
2019-01-20T21:26:10.118Z,23.47
2019-01-20T21:28:40.506Z,23.57
2019-01-20T21:31:12.518Z,30.32
2019-01-20T21:33:43.003Z,25.97
2019-01-20T21:36:13.453Z,25.43
2019-01-20T21:38:44.331Z,30.27
2019-01-20T21:41:15.479Z,25.57
2019-01-20T21:43:46.300Z,27.33
2019-01-20T21:46:17.113Z,26.47
2019-01-20T21:48:47.535Z,29.45
2019-01-20T21:51:18.110Z,29.37
2019-01-20T21:53:48.528Z,30.13
2019-01-20T21:56:19.954Z,31.53
2019-01-20T21:58:50.676Z,24.32
2019-01-20T22:01:21.529Z,22.10
2019-01-20T22:03:52.117Z,28.23
2019-01-20T22:06:22.935Z,30.93
2019-01-20T22:08:53.560Z,24.40
2019-01-20T22:11:24.303Z,29.75
2019-01-20T22:13:55.003Z,23.00
2019-01-20T22:16:25.324Z,23.50
2019-01-20T22:18:58.031Z,23.60
2019-01-20T22:21:28.318Z,34.83
2019-01-20T22:24:00.344Z,39.60
2019-01-20T22:26:31.823Z,27.13
2019-01-20T22:29:02.402Z,32.40
2019-01-20T22:31:34.653Z,27.03
2019-01-20T22:34:07.019Z,27.20
2019-01-20T22:36:37.576Z,19.87
2019-01-20T22:39:09.698Z,22.22
2019-01-20T22:41:40.104Z,24.00
2019-01-20T22:44:13.304Z,21.85
2019-01-20T22:46:43.647Z,22.77
2019-01-20T22:49:16.696Z,21.70
2019-01-20T22:51:48.106Z,24.33
2019-01-20T22:54:20.592Z,20.93
2019-01-20T22:56:50.876Z,21.93
2019-01-20T22:59:23.282Z,22.18
2019-01-20T23:01:53.848Z,23.23
2019-01-20T23:04:25.462Z,25.55
2019-01-20T23:06:56.046Z,20.93
2019-01-20T23:09:26.618Z,21.40
2019-01-20T23:11:58.762Z,20.70
2019-01-20T23:14:29.219Z,23.13
2019-01-20T23:16:59.981Z,19.37
2019-01-20T23:19:34.391Z,28.20
2019-01-20T23:22:04.728Z,22.37
2019-01-20T23:24:35.042Z,26.43
2019-01-20T23:27:06.101Z,23.80
2019-01-20T23:29:36.758Z,23.43
2019-01-20T23:32:07.130Z,21.10
2019-01-20T23:34:37.691Z,24.60
2019-01-20T23:37:08.344Z,25.50
2019-01-20T23:39:38.685Z,25.10
2019-01-20T23:42:09.324Z,23.53
2019-01-20T23:44:40.063Z,22.50
2019-01-20T23:47:15.276Z,30.72
2019-01-20T23:49:46.223Z,33.27
2019-01-20T23:52:17.175Z,31.18
2019-01-20T23:54:47.465Z,25.30
2019-01-20T23:57:18.244Z,33.23
2019-01-20T23:59:48.635Z,30.27
